Burney, CA (96013)

5:04 PM PDT on July 29, 2016 (GMT -0700)
Black Ranch at Vedder | | Change Station

Elev 3137 ft 40.93 °N, 121.66 °W | Updated 5 seconds ago

Clear
Clear
98.2 °F
Feels Like 95 °F
N
9.0
Wind Variable Wind from West
Gusts 11.0 mph

Today
High -- | Low -- °F
--% Chance of Precip.
Yesterday
High -- | Low -- °F
Precip. -- in
Pressure 29.85 in
Visibility 10.0 miles
Clouds Clear
Heat Index 95 °F
Dew Point 50 °F
Humidity 20%
Rainfall 0.00 in
Snow Depth Not available.
6:00 AM 8:25 PM
Waning Crescent, 18% visible
METAR KMHS 292356Z AUTO 00000KT 10SM CLR 36/11 A2993 RMK AO2 SLP108 T03610106 10389 20328 58015
Pressure 29.85 in
Visibility 10.0 miles
Clouds Clear
Heat Index 95 °F
Dew Point 50 °F
Humidity 20%
Rainfall 0.00 in
Snow Depth Not available.
6:00 AM 8:25 PM
Waning Crescent, 18% visible
METAR KMHS 292356Z AUTO 00000KT 10SM CLR 36/11 A2993 RMK AO2 SLP108 T03610106 10389 20328 58015

10-Day Weather Forecast

Almanac

Astronomy

Jul. 29, 2016 Rise Set
Actual Time
Civil Twilight
Nautical Twilight
Astronomical Twilight
Moon
Length of Visible Light
Length of Day
Tomorrow will be .
, % of the Moon is Illuminated

Today's Extremes

State Highs State Lows

Community

WunderPhotos

Upload Photos

1,928,449 photos uploaded!

WunderBlog® & News

Nearby

Air Quality

  Air Quality AQ Index Pollutant
Not available.

Snow Depth

Station Depth Elevation

Earthquake Activity

City Distance Mag. Time & Date
Minimum magnitude displayed is 2.5.

Coastal Water Temperatures

Place Temperature

Stations

Nearby Weather Stations

Station Location Temp. Windchill Dew Point Humidity Wind Precip. Elev Updated Type
                   

Watches & Warnings

There are currently no watches in effect.